Time;durP1;ratioP1;P1;durP2;ratioP2;P2;SDS_P1;SDS_P2;PMS_P1;PMS_P2;Temp;Humidity;BMP_temperature;BMP_pressure;BME280_temperature;BME280_humidity;BME280_pressure;Samples;Min_cycle;Max_cycle;Signal;HPM_P1;HPM_P2
2022/12/12 14:08:26;;;;;;;12.30;6.40;;;;;;;8.68;97.08;101064.13;5043160;28;20277;-64
2022/12/12 14:10:59;;;;;;;9.23;6.30;;;;;;;9.52;92.09;101060.56;5043137;28;20072;-64
2022/12/12 14:13:29;;;;;;;9.13;5.73;;;;;;;10.22;88.40;101049.59;5059335;23;20798;-75
2022/12/12 14:16:05;;;;;;;10.27;5.70;;;;;;;10.68;84.83;101047.22;5049911;28;20305;-86
2022/12/12 14:18:54;;;;;;;8.27;5.60;;;;;;;11.10;82.55;101050.56;5027023;28;20608;-88
2022/12/12 14:21:37;;;;;;;8.83;5.53;;;;;;;11.57;80.08;101051.28;5010210;28;20064;-81
2022/12/12 15:35:32;;;;;;;9.48;5.10;;;;;;;13.28;63.98;101102.31;5076688;22;20407;-80
2022/12/12 15:38:06;;;;;;;9.20;5.00;;;;;;;13.28;63.36;101110.47;5027026;28;20040;-76
2022/12/12 15:40:32;;;;;;;8.70;5.03;;;;;;;13.26;63.02;101096.28;5025861;28;20689;-80
2022/12/12 15:43:02;;;;;;;10.93;5.40;;;;;;;13.31;63.10;101111.91;5027725;28;20044;-80
2022/12/12 15:45:35;;;;;;;10.80;5.47;;;;;;;13.29;62.54;101106.69;5026220;28;20126;-81
2022/12/12 15:48:02;;;;;;;9.93;5.80;;;;;;;13.30;61.97;101111.09;5026350;28;20703;-77
2022/12/12 15:50:43;;;;;;;8.73;5.17;;;;;;;13.34;65.03;101106.03;5026478;28;20347;-77
2022/12/12 15:53:17;;;;;;;11.87;5.67;;;;;;;13.31;63.23;101110.03;5028139;28;20038;-77
2022/12/12 15:58:22;;;;;;;9.40;4.87;;;;;;;13.30;63.15;101116.53;5035846;28;20060;-71
2022/12/12 16:00:51;;;;;;;9.60;5.53;;;;;;;13.34;62.37;101117.75;5046951;28;20032;-66
2022/12/12 16:03:16;;;;;;;8.57;4.97;;;;;;;13.34;61.88;101123.19;5046320;28;20044;-67
2022/12/12 16:05:42;;;;;;;8.83;5.20;;;;;;;13.36;61.88;101117.56;5045914;28;20028;-67
2022/12/12 16:08:32;;;;;;;9.60;5.20;;;;;;;13.42;64.33;101118.56;5046302;28;20045;-67
2022/12/12 16:11:00;;;;;;;7.90;5.03;;;;;;;13.38;61.28;101125.50;5045623;28;20046;-67
2022/12/12 16:13:40;;;;;;;8.50;5.53;;;;;;;13.41;63.09;101133.19;5046142;28;20032;-67
2022/12/12 16:16:39;;;;;;;9.27;5.50;;;;;;;13.43;63.93;101134.66;5045188;28;20043;-67
2022/12/12 16:19:24;;;;;;;10.43;6.10;;;;;;;13.45;62.05;101131.69;5043354;28;20028;-69
2022/12/12 16:21:49;;;;;;;8.50;5.43;;;;;;;13.44;60.86;101133.59;5045657;28;21146;-69
2022/12/12 16:24:24;;;;;;;7.93;5.70;;;;;;;13.48;61.60;101129.38;5046608;28;20029;-69
2022/12/12 16:26:50;;;;;;;7.00;5.28;;;;;;;13.51;60.39;101125.38;5045980;28;20033;-68
2022/12/12 16:29:15;;;;;;;10.27;5.70;;;;;;;13.51;60.29;101130.81;5045790;28;20040;-76
2022/12/12 16:31:43;;;;;;;8.50;5.37;;;;;;;13.56;60.20;101130.97;5050462;28;20037;-76
2022/12/12 16:34:09;;;;;;;8.30;5.20;;;;;;;13.56;60.04;101125.53;5047896;28;20070;-67
2022/12/12 16:36:34;;;;;;;8.47;5.30;;;;;;;13.53;60.01;101117.84;5049111;28;20032;-66
2022/12/12 16:39:00;;;;;;;8.80;4.93;;;;;;;13.51;59.97;101112.59;5047413;28;20044;-67
2022/12/12 16:41:26;;;;;;;8.43;5.33;;;;;;;13.53;59.95;101108.81;5048208;28;20713;-67
2022/12/12 16:43:51;;;;;;;7.40;5.07;;;;;;;13.49;60.19;101105.69;5048820;28;20106;-67
2022/12/12 16:46:23;;;;;;;7.07;5.00;;;;;;;13.48;60.27;101104.06;5048738;28;20041;-67
2022/12/12 16:48:51;;;;;;;8.00;4.90;;;;;;;13.47;60.27;101105.09;5047854;28;20029;-67
2022/12/12 16:51:27;;;;;;;6.03;4.67;;;;;;;13.46;61.41;101104.28;5048778;28;20083;-67
2022/12/12 16:53:52;;;;;;;9.60;5.00;;;;;;;13.45;60.47;101109.94;5048741;28;20123;-67
2022/12/12 16:56:17;;;;;;;14.43;5.00;;;;;;;13.45;60.63;101107.19;5047831;28;20043;-67
2022/12/12 16:58:43;;;;;;;7.67;4.50;;;;;;;13.44;60.67;101113.72;5048122;28;20054;-67
2022/12/12 17:01:09;;;;;;;8.13;4.80;;;;;;;13.42;60.74;101111.22;5048583;28;20040;-67
2022/12/12 17:03:34;;;;;;;7.33;4.33;;;;;;;13.41;60.82;101114.16;5047769;28;20031;-67
2022/12/12 17:06:00;;;;;;;6.90;4.50;;;;;;;13.39;60.93;101114.38;5047236;28;20037;-67
2022/12/12 17:08:26;;;;;;;7.70;4.37;;;;;;;13.38;61.01;101109.16;5046936;28;20046;-67
2022/12/12 17:10:52;;;;;;;6.70;4.50;;;;;;;13.36;61.24;101103.13;5046065;28;20075;-67
2022/12/12 17:13:23;;;;;;;6.00;4.30;;;;;;;13.33;61.27;101104.38;5046874;28;20078;-67
2022/12/12 17:15:50;;;;;;;7.03;4.40;;;;;;;13.29;61.42;101106.69;5054469;28;20040;-67
2022/12/12 17:18:16;;;;;;;7.73;4.70;;;;;;;13.28;61.56;101112.38;5046490;28;20540;-67
2022/12/12 17:20:42;;;;;;;5.33;4.00;;;;;;;13.25;61.71;101108.19;5046971;28;20032;-67
2022/12/12 17:23:12;;;;;;;5.70;4.33;;;;;;;13.23;61.78;101107.63;5046696;28;20036;-67
2022/12/12 17:25:38;;;;;;;6.13;4.10;;;;;;;13.24;61.95;101108.44;5046008;28;20037;-67
2022/12/12 17:28:04;;;;;;;7.23;4.40;;;;;;;13.20;61.93;101107.22;5046280;28;20125;-67
2022/12/12 17:30:29;;;;;;;6.80;4.17;;;;;;;13.18;62.25;101100.09;5046660;28;20039;-67
2022/12/12 17:32:54;;;;;;;5.83;4.30;;;;;;;13.18;62.29;101110.16;5045755;28;20458;-67
2022/12/12 17:35:20;;;;;;;5.00;4.13;;;;;;;13.15;62.33;101105.16;5046363;28;20044;-67
2022/12/12 17:37:45;;;;;;;5.57;4.20;;;;;;;13.11;62.33;101109.38;5046445;28;20028;-67
2022/12/12 17:40:10;;;;;;;5.53;4.27;;;;;;;13.11;62.49;101112.09;5046049;28;20039;-67
2022/12/12 17:42:37;;;;;;;6.07;4.27;;;;;;;13.09;62.56;101106.06;5045979;28;20040;-67
2022/12/12 17:45:04;;;;;;;4.70;3.93;;;;;;;13.09;62.65;101116.94;5047454;28;20082;-67
2022/12/12 17:47:29;;;;;;;5.90;4.37;;;;;;;13.06;62.77;101117.38;5046887;28;20043;-67
2022/12/12 17:49:55;;;;;;;4.90;3.90;;;;;;;13.06;62.91;101106.50;5047435;28;20040;-67
2022/12/12 17:52:20;;;;;;;4.83;4.20;;;;;;;13.06;62.93;101104.59;5047466;28;20036;-67
2022/12/12 17:54:46;;;;;;;4.97;3.73;;;;;;;13.07;63.22;101102.69;5047573;28;20039;-67
2022/12/12 17:57:11;;;;;;;5.63;4.10;;;;;;;13.06;63.25;101104.59;5047297;28;20055;-67
2022/12/12 17:59:36;;;;;;;5.70;3.70;;;;;;;13.08;63.39;101109.81;5047510;28;20115;-67
2022/12/12 18:02:04;;;;;;;8.00;4.10;;;;;;;13.08;63.22;101102.50;5047194;28;20031;-67
2022/12/12 18:04:35;;;;;;;11.13;4.20;;;;;;;13.06;63.43;101096.44;5048057;28;20379;-67
2022/12/12 18:07:01;;;;;;;8.30;4.20;;;;;;;13.03;63.59;101096.03;5048313;28;20617;-67
2022/12/12 18:09:26;;;;;;;7.90;4.50;;;;;;;13.05;63.64;101099.38;5047338;28;20112;-67
2022/12/12 18:11:52;;;;;;;8.57;4.50;;;;;;;13.04;63.69;101103.16;5047633;28;20049;-67
2022/12/12 18:14:18;;;;;;;6.43;3.70;;;;;;;13.04;63.64;101105.88;5047200;28;20041;-67
2022/12/12 18:16:47;;;;;;;7.37;3.80;;;;;;;13.00;63.79;101098.16;5047177;28;20080;-67
2022/12/12 18:19:12;;;;;;;7.53;4.00;;;;;;;13.10;63.94;101103.09;5047990;28;20086;-66
2022/12/12 18:21:38;;;;;;;10.07;4.00;;;;;;;13.14;63.97;101106.22;5047909;28;20033;-66
2022/12/12 18:24:04;;;;;;;10.77;4.07;;;;;;;13.10;64.02;101110.44;5048033;28;20111;-66
2022/12/12 18:26:30;;;;;;;8.73;4.20;;;;;;;13.12;64.07;101101.00;5047442;28;20044;-66
2022/12/12 18:29:00;;;;;;;8.40;3.90;;;;;;;13.12;64.19;101106.44;5047659;28;21725;-65
2022/12/12 18:31:26;;;;;;;8.73;4.33;;;;;;;13.13;64.40;101101.84;5047228;28;20149;-66
2022/12/12 18:33:52;;;;;;;13.63;4.27;;;;;;;13.13;64.50;101110.81;5043242;28;20579;-66
2022/12/12 18:36:20;;;;;;;5.83;3.80;;;;;;;13.14;64.56;101106.22;5043063;28;20617;-66
2022/12/12 18:38:45;;;;;;;7.90;4.07;;;;;;;13.13;64.63;101108.09;5044060;28;20029;-66
2022/12/12 18:41:11;;;;;;;10.90;3.93;;;;;;;13.13;64.58;101105.38;5043125;28;20608;-66
2022/12/12 18:43:37;;;;;;;8.63;3.80;;;;;;;13.14;64.60;101109.75;5043878;28;20059;-66
2022/12/12 18:46:05;;;;;;;10.17;4.00;;;;;;;13.15;64.67;101105.16;5042537;28;20043;-64
2022/12/12 18:48:34;;;;;;;7.07;3.77;;;;;;;13.14;64.60;101098.88;5043224;28;20036;-65
2022/12/12 18:51:04;;;;;;;10.47;4.07;;;;;;;13.16;64.76;101102.22;5043734;28;20429;-65
2022/12/12 18:53:29;;;;;;;10.23;3.97;;;;;;;13.17;64.53;101103.88;5044724;28;20034;-65
2022/12/12 18:55:55;;;;;;;10.60;4.33;;;;;;;13.17;64.62;101097.59;5047383;28;20032;-65
2022/12/12 18:58:20;;;;;;;9.10;4.03;;;;;;;13.20;64.71;101099.88;5047673;28;20052;-64
2022/12/12 19:00:45;;;;;;;7.77;3.97;;;;;;;13.20;64.78;101099.88;5048074;28;20032;-69
2022/12/12 19:03:11;;;;;;;5.20;3.53;;;;;;;13.21;64.62;101100.72;5047645;28;20029;-64
2022/12/12 19:05:41;;;;;;;9.17;3.80;;;;;;;13.21;64.85;101103.44;5047337;28;20029;-64
2022/12/12 19:08:07;;;;;;;5.80;4.20;;;;;;;13.24;64.77;101103.00;5047625;28;20119;-64
2022/12/12 19:10:34;;;;;;;5.67;3.87;;;;;;;13.23;64.68;101101.31;5047284;28;20551;-64
2022/12/12 19:13:00;;;;;;;7.43;4.17;;;;;;;13.22;64.57;101097.78;5047035;28;20086;-64
2022/12/12 19:15:25;;;;;;;7.60;3.97;;;;;;;13.23;64.68;101094.00;5047406;28;20036;-64
2022/12/12 19:17:52;;;;;;;9.37;3.80;;;;;;;13.24;64.69;101092.94;5047773;28;20028;-64
2022/12/12 19:20:18;;;;;;;6.90;3.83;;;;;;;13.24;64.56;101086.66;5048257;28;20037;-64
2022/12/12 19:22:43;;;;;;;9.00;3.57;;;;;;;13.25;64.78;101097.31;5047371;28;20538;-64
2022/12/12 19:25:08;;;;;;;6.03;3.83;;;;;;;13.24;64.50;101103.81;5047512;28;20060;-63
2022/12/12 19:27:34;;;;;;;7.67;3.90;;;;;;;13.24;64.77;101098.38;5047113;28;20135;-64
2022/12/12 19:29:59;;;;;;;6.33;3.70;;;;;;;13.23;64.66;101104.88;5047651;28;20079;-64
2022/12/12 19:32:24;;;;;;;5.23;3.60;;;;;;;13.24;64.80;101113.88;5051057;28;20492;-64
2022/12/12 19:34:50;;;;;;;5.27;3.77;;;;;;;13.24;64.76;101109.25;5050048;28;20575;-64
2022/12/12 19:39:51;;;;;;;8.27;3.72;;;;;;;13.21;64.86;101112.44;5041558;22;20044;-64
2022/12/12 19:42:16;;;;;;;7.97;3.70;;;;;;;13.23;64.88;101113.06;5041573;28;20059;-64
2022/12/12 19:44:41;;;;;;;6.13;4.00;;;;;;;13.22;64.79;101108.66;5041706;28;20032;-64
2022/12/12 19:47:07;;;;;;;9.10;3.80;;;;;;;13.21;65.06;101104.25;5037998;28;20068;-64
2022/12/12 19:49:32;;;;;;;7.03;3.50;;;;;;;13.22;64.93;101111.38;5039893;28;20037;-64
2022/12/12 19:51:57;;;;;;;7.30;3.80;;;;;;;13.22;64.96;101111.38;5038117;28;20041;-64
2022/12/12 19:54:23;;;;;;;10.70;4.20;;;;;;;13.22;64.95;101110.53;5040175;28;20534;-64
2022/12/12 19:56:48;;;;;;;7.20;4.00;;;;;;;13.21;64.99;101109.72;5037107;28;20065;-64
2022/12/12 19:59:16;;;;;;;6.70;3.87;;;;;;;13.22;64.93;101115.97;5036988;28;20029;-64
2022/12/12 20:01:42;;;;;;;5.30;3.80;;;;;;;13.21;64.85;101111.59;5036193;28;20072;-64
2022/12/12 20:04:17;;;;;;;5.90;3.70;;;;;;;13.21;65.46;101107.00;5037092;28;20052;-64
2022/12/12 20:06:44;;;;;;;7.75;3.60;;;;;;;13.21;65.01;101108.88;5021122;28;20920;-64
2022/12/12 20:09:15;;;;;;;6.23;3.90;;;;;;;13.20;64.85;101118.09;5039083;28;20047;-64
2022/12/12 20:11:43;;;;;;;5.03;3.90;;;;;;;13.18;65.03;101105.53;5038213;28;20048;-64
2022/12/12 20:14:12;;;;;;;8.07;3.87;;;;;;;13.18;65.00;101107.44;5039408;28;20029;-64
2022/12/12 20:16:37;;;;;;;5.47;3.80;;;;;;;13.16;64.88;101104.09;5038262;28;20021;-63
2022/12/12 20:19:03;;;;;;;6.50;3.90;;;;;;;13.18;64.90;101107.44;5037983;28;20056;-63
2022/12/12 20:21:28;;;;;;;6.97;4.33;;;;;;;13.16;65.05;101104.09;5037711;28;20059;-63
2022/12/12 20:23:53;;;;;;;8.43;4.17;;;;;;;13.17;65.17;101105.78;5038138;28;20117;-63
2022/12/12 20:26:22;;;;;;;6.63;3.83;;;;;;;13.16;65.09;101107.66;5038635;28;20415;-63
2022/12/12 20:28:48;;;;;;;6.13;3.90;;;;;;;13.17;65.02;101103.03;5040343;28;20091;-63
2022/12/12 20:31:19;;;;;;;8.47;4.03;;;;;;;13.18;65.02;101110.16;5039222;28;20025;-63
2022/12/12 20:33:45;;;;;;;6.50;3.67;;;;;;;13.18;64.90;101110.16;5037552;28;20087;-63
2022/12/12 20:36:14;;;;;;;6.83;3.80;;;;;;;13.18;65.04;101107.44;5039238;28;20027;-63
2022/12/12 20:38:40;;;;;;;7.30;3.87;;;;;;;13.18;65.13;101108.25;5036359;28;20053;-63
2022/12/12 20:41:18;;;;;;;6.23;4.00;;;;;;;13.21;65.59;101111.59;5034848;28;20090;-63
2022/12/12 20:43:44;;;;;;;5.87;3.87;;;;;;;13.21;65.12;101107.00;5035519;28;20025;-63
2022/12/12 20:46:15;;;;;;;6.03;3.90;;;;;;;13.22;64.95;101110.53;5019154;28;20426;-63
2022/12/12 20:48:40;;;;;;;6.73;4.20;;;;;;;13.21;64.97;101107.00;5035620;28;20090;-63
2022/12/12 20:51:07;;;;;;;6.97;3.77;;;;;;;13.24;64.95;101113.88;5029222;28;20037;-63
2022/12/12 20:53:34;;;;;;;5.77;3.80;;;;;;;13.23;64.88;101107.63;5035952;28;20032;-63
2022/12/12 20:56:04;;;;;;;5.50;3.97;;;;;;;13.24;65.13;101111.16;5018789;28;20060;-63
2022/12/12 20:58:30;;;;;;;6.93;3.90;;;;;;;13.24;64.92;101119.31;5036082;28;20028;-63
2022/12/12 21:00:56;;;;;;;6.97;4.37;;;;;;;13.24;64.90;101113.88;5035048;28;20058;-63
2022/12/12 21:03:21;;;;;;;4.90;3.97;;;;;;;13.25;64.95;101115.56;5035902;28;21749;-63
2022/12/12 21:05:47;;;;;;;5.60;4.00;;;;;;;13.23;64.83;101117.66;5035229;28;20045;-63
2022/12/12 21:08:12;;;;;;;5.97;4.40;;;;;;;13.23;64.90;101120.38;5035942;28;20033;-64
2022/12/12 21:10:37;;;;;;;6.57;4.10;;;;;;;13.23;64.74;101123.94;5018125;28;20049;-64
2022/12/12 21:13:03;;;;;;;5.53;4.10;;;;;;;13.23;64.62;101123.94;5035432;28;20036;-64
2022/12/12 21:15:28;;;;;;;5.40;3.63;;;;;;;13.23;64.81;101129.38;5034472;28;21440;-64
2022/12/12 21:17:53;;;;;;;6.33;4.20;;;;;;;13.23;64.63;101123.94;5027652;28;20033;-64
2022/12/12 21:20:19;;;;;;;5.00;3.60;;;;;;;13.23;64.69;101123.09;5034896;28;20079;-64
2022/12/12 21:22:44;;;;;;;6.63;4.00;;;;;;;13.21;64.65;101125.22;5034266;28;20033;-64
2022/12/12 21:25:09;;;;;;;7.10;4.13;;;;;;;13.22;64.64;101132.28;5035374;28;20863;-64
2022/12/12 21:27:34;;;;;;;5.10;4.10;;;;;;;13.21;64.71;101123.31;5033949;28;20108;-64
2022/12/12 21:30:00;;;;;;;5.00;4.10;;;;;;;13.18;64.83;101121.88;5006087;28;20123;-64
2022/12/12 21:32:25;;;;;;;5.57;3.70;;;;;;;13.20;64.98;101116.19;5033909;28;20376;-64
2022/12/12 21:34:50;;;;;;;5.20;4.00;;;;;;;13.20;65.06;101127.06;5035182;28;20037;-64
2022/12/12 21:37:16;;;;;;;6.03;4.03;;;;;;;13.17;64.95;101125.63;5017870;28;20033;-64
2022/12/12 21:39:43;;;;;;;5.50;3.77;;;;;;;13.16;64.81;101118.56;5034163;28;20041;-64
2022/12/12 21:42:09;;;;;;;6.00;4.30;;;;;;;13.16;64.76;101118.56;5035062;28;20047;-64
2022/12/12 21:44:35;;;;;;;4.97;3.97;;;;;;;13.16;64.83;101117.69;5034797;28;20045;-64
2022/12/12 21:47:00;;;;;;;6.37;4.10;;;;;;;13.14;64.90;101120.66;5034257;28;20478;-64
2022/12/12 21:49:26;;;;;;;5.83;4.10;;;;;;;13.13;64.93;101118.97;5034425;28;20044;-64
2022/12/12 21:52:02;;;;;;;6.17;3.97;;;;;;;13.13;64.87;101126.31;5035186;28;20496;-64
2022/12/12 21:54:28;;;;;;;6.17;3.83;;;;;;;13.14;64.92;101120.66;5034690;28;20037;-64
2022/12/12 21:56:55;;;;;;;5.97;4.20;;;;;;;13.12;65.16;101117.34;5035108;28;20151;-64
2022/12/12 21:59:21;;;;;;;6.17;3.93;;;;;;;13.15;65.28;101119.59;5034936;28;20086;-64
2022/12/12 22:01:46;;;;;;;5.90;4.10;;;;;;;13.13;65.16;101123.59;5035055;28;20047;-64
2022/12/12 22:04:12;;;;;;;5.63;4.00;;;;;;;13.13;65.22;101116.25;5034551;28;20032;-64
2022/12/12 22:06:38;;;;;;;6.63;4.10;;;;;;;13.13;65.33;101124.41;5034425;28;20060;-64
2022/12/12 22:09:06;;;;;;;6.07;3.90;;;;;;;13.11;65.38;101121.09;5034555;28;20094;-64
2022/12/12 22:11:34;;;;;;;8.13;4.23;;;;;;;13.10;65.39;101124.03;5009007;28;20151;-64
2022/12/12 22:14:00;;;;;;;7.60;3.90;;;;;;;13.10;65.41;101119.44;5034487;28;20029;-64
2022/12/12 22:16:26;;;;;;;5.83;3.83;;;;;;;13.10;65.47;101118.59;5033940;28;20041;-64
2022/12/12 22:18:52;;;;;;;5.20;4.00;;;;;;;13.09;65.40;101116.94;5027256;28;20142;-64
2022/12/12 22:21:21;;;;;;;5.17;4.13;;;;;;;13.08;65.40;101120.69;5032960;28;20048;-64
2022/12/12 22:23:51;;;;;;;7.50;4.30;;;;;;;13.06;65.47;101117.38;5034260;28;20037;-64
2022/12/12 22:26:29;;;;;;;6.17;4.00;;;;;;;13.08;65.56;101123.41;5032850;28;20053;-64
2022/12/12 22:29:00;;;;;;;9.30;4.80;;;;;;;13.07;65.72;101125.31;5035887;28;20079;-64
2022/12/12 22:31:28;;;;;;;5.80;4.60;;;;;;;13.06;65.72;101117.38;5037316;28;21745;-64
2022/12/12 22:34:00;;;;;;;4.80;4.00;;;;;;;13.06;65.93;101129.09;5038188;28;21070;-64
2022/12/12 22:36:31;;;;;;;4.83;3.80;;;;;;;13.04;66.10;101114.88;5036954;28;20029;-64
2022/12/12 22:38:58;;;;;;;7.63;4.33;;;;;;;13.05;65.80;101126.59;5037674;28;20135;-64
2022/12/12 22:41:24;;;;;;;6.87;4.20;;;;;;;13.04;65.91;101120.34;5036527;28;20042;-64
2022/12/12 22:43:54;;;;;;;5.73;4.07;;;;;;;13.04;65.96;101130.34;5037848;28;20028;-63
2022/12/12 22:46:20;;;;;;;4.90;4.00;;;;;;;13.03;66.09;101123.25;5037791;28;20167;-63
2022/12/12 22:48:46;;;;;;;6.50;4.40;;;;;;;13.03;65.93;101117.81;5037825;28;20044;-63
2022/12/12 22:51:18;;;;;;;6.77;4.60;;;;;;;13.03;66.21;101115.94;5038075;28;20037;-63
2022/12/12 22:53:43;;;;;;;7.00;4.30;;;;;;;13.03;66.17;101120.53;5037883;28;20396;-63
2022/12/12 22:56:09;;;;;;;5.60;4.00;;;;;;;13.02;65.98;101118.88;5036855;28;20037;-63
2022/12/12 22:58:34;;;;;;;6.60;4.30;;;;;;;13.01;66.26;101120.75;5037599;28;20076;-63
2022/12/12 23:01:19;;;;;;;7.00;4.47;;;;;;;13.05;67.19;101123.88;5037757;28;20048;-63
2022/12/12 23:03:46;;;;;;;7.90;4.27;;;;;;;13.00;66.40;101110.91;5037406;28;20094;-63
2022/12/12 23:06:15;;;;;;;6.53;4.20;;;;;;;13.01;66.25;101115.31;5036969;28;20036;-63
2022/12/12 23:08:41;;;;;;;4.50;4.10;;;;;;;12.98;66.17;101111.16;5037012;28;20052;-63
2022/12/12 23:11:14;;;;;;;6.97;4.23;;;;;;;12.99;66.41;101101.94;5036664;28;20033;-63
2022/12/12 23:13:43;;;;;;;6.30;4.30;;;;;;;12.98;66.33;101105.69;5037640;28;20048;-63
2022/12/12 23:16:11;;;;;;;7.13;4.30;;;;;;;12.97;66.33;101087.75;5031994;28;20173;-63
2022/12/12 23:18:38;;;;;;;5.93;4.27;;;;;;;12.98;66.54;101092.09;5031483;28;20119;-63
2022/12/12 23:21:08;;;;;;;7.97;4.50;;;;;;;12.98;66.47;101080.41;5024165;28;20071;-63
2022/12/12 23:23:35;;;;;;;6.20;4.30;;;;;;;13.00;66.67;101090.00;5031724;28;20048;-63
2022/12/12 23:26:03;;;;;;;4.60;3.93;;;;;;;12.97;66.73;101085.03;5036675;28;20498;-63
2022/12/12 23:28:28;;;;;;;7.83;4.53;;;;;;;12.97;66.67;101085.03;5038505;28;20029;-63
2022/12/12 23:30:54;;;;;;;6.10;4.20;;;;;;;12.98;66.58;101083.13;5038593;28;20047;-63
2022/12/12 23:33:19;;;;;;;6.83;4.30;;;;;;;12.99;66.84;101079.34;5038217;28;20112;-63
2022/12/12 23:35:46;;;;;;;7.03;4.40;;;;;;;12.96;66.83;101075.19;5038896;28;20044;-63
2022/12/12 23:38:12;;;;;;;6.57;4.13;;;;;;;12.97;66.91;101070.56;5037631;28;20056;-63
2022/12/12 23:40:37;;;;;;;6.40;4.37;;;;;;;12.97;66.71;101076.00;5037357;28;20507;-63
2022/12/12 23:43:03;;;;;;;5.97;4.33;;;;;;;12.95;66.76;101073.50;5038071;28;20075;-63
2022/12/12 23:45:28;;;;;;;7.33;4.67;;;;;;;12.95;66.80;101078.97;5037933;28;20149;-63
2022/12/12 23:47:53;;;;;;;5.13;4.07;;;;;;;12.95;67.08;101069.97;5038054;28;20029;-63
2022/12/12 23:50:19;;;;;;;7.43;4.43;;;;;;;12.96;66.94;101071.63;5037977;28;20045;-63
2022/12/12 23:52:44;;;;;;;5.33;4.03;;;;;;;12.95;67.11;101072.69;5037709;28;20520;-63
2022/12/12 23:55:09;;;;;;;6.73;4.60;;;;;;;12.96;67.06;101069.75;5037745;28;20130;-63
2022/12/12 23:57:35;;;;;;;5.83;4.23;;;;;;;12.94;66.88;101071.84;5037676;28;20155;-63
